Time;durP1;ratioP1;P1;durP2;ratioP2;P2;SDS_P1;SDS_P2;PMS_P1;PMS_P2;Temp;Humidity;BMP_temperature;BMP_pressure;BME280_temperature;BME280_humidity;BME280_pressure;Samples;Min_cycle;Max_cycle;Signal;HPM_P1;HPM_P2
2022/06/08 00:02:12;;;;;;;9.80;7.40;;;14.80;99.90;;;;;;5060079;28;20043;-79
2022/06/08 00:04:38;;;;;;;11.57;7.32;;;14.80;99.90;;;;;;5048152;28;20037;-79
2022/06/08 00:07:05;;;;;;;8.65;6.95;;;14.70;99.90;;;;;;5029603;28;20040;-79
2022/06/08 00:09:31;;;;;;;10.07;8.38;;;14.70;99.90;;;;;;5042627;28;20027;-79
2022/06/08 00:11:58;;;;;;;10.90;7.53;;;14.60;99.90;;;;;;5061940;28;20024;-79
2022/06/08 00:14:24;;;;;;;10.65;8.93;;;14.60;99.90;;;;;;5044419;28;20028;-79
2022/06/08 00:16:51;;;;;;;9.93;8.05;;;14.50;99.90;;;;;;5058863;28;20032;-78
2022/06/08 00:19:17;;;;;;;9.43;8.27;;;14.50;99.90;;;;;;5029964;28;20040;-79
2022/06/08 00:21:44;;;;;;;9.70;7.68;;;14.40;99.90;;;;;;5065718;28;20043;-79
2022/06/08 00:24:10;;;;;;;8.98;6.90;;;14.40;99.90;;;;;;5059225;28;20037;-79
2022/06/08 00:26:37;;;;;;;9.95;7.60;;;14.40;99.90;;;;;;5043516;28;20028;-79
2022/06/08 00:29:04;;;;;;;10.65;9.13;;;14.40;99.90;;;;;;5063912;28;21418;-79
2022/06/08 00:31:31;;;;;;;11.07;8.93;;;14.40;99.90;;;;;;5066171;28;20039;-79
2022/06/08 00:33:58;;;;;;;13.85;9.75;;;14.30;99.90;;;;;;5034629;28;20040;-79
2022/06/08 00:36:24;;;;;;;12.02;10.27;;;14.30;99.90;;;;;;5063710;28;20024;-79
2022/06/08 00:38:51;;;;;;;12.20;10.13;;;14.30;99.90;;;;;;5032958;28;20067;-79
2022/06/08 00:41:17;;;;;;;13.10;9.98;;;14.30;99.90;;;;;;5031650;28;20061;-79
2022/06/08 00:43:44;;;;;;;11.70;9.75;;;14.30;99.90;;;;;;5044948;28;20438;-78
2022/06/08 00:46:11;;;;;;;11.73;8.98;;;14.40;99.90;;;;;;5064327;28;20024;-78
2022/06/08 00:49:02;;;;;;;11.75;8.93;;;14.40;99.90;;;;;;5025564;28;20059;-79
2022/06/08 00:51:29;;;;;;;11.80;9.95;;;14.50;99.90;;;;;;5060523;28;20028;-79
2022/06/08 00:53:59;;;;;;;11.90;9.45;;;14.50;99.90;;;;;;5055392;28;20036;-79
2022/06/08 00:56:38;;;;;;;12.95;10.68;;;14.50;99.90;;;;;;5074627;28;20406;-78
2022/06/08 00:59:08;;;;;;;13.73;9.85;;;14.50;99.90;;;;;;5064116;28;20036;-78
2022/06/08 01:01:35;;;;;;;13.18;9.73;;;14.60;99.90;;;;;;5050405;28;20043;-78
2022/06/08 01:04:14;;;;;;;11.38;9.65;;;14.70;99.90;;;;;;5070494;28;20384;-78
2022/06/08 01:06:47;;;;;;;12.18;9.13;;;14.80;99.90;;;;;;5065155;28;20031;-79
2022/06/08 01:09:23;;;;;;;10.40;9.18;;;14.80;99.90;;;;;;5056999;28;20379;-79
2022/06/08 01:11:50;;;;;;;12.25;8.82;;;14.90;99.90;;;;;;5065571;28;20065;-79
2022/06/08 01:14:19;;;;;;;10.90;9.35;;;15.00;99.90;;;;;;5061929;28;20032;-79
2022/06/08 01:16:51;;;;;;;13.55;10.38;;;15.00;99.90;;;;;;5063520;28;21044;-79
2022/06/08 01:19:20;;;;;;;9.93;8.23;;;15.10;99.90;;;;;;5052208;28;20032;-79
2022/06/08 01:21:53;;;;;;;11.80;9.52;;;15.20;99.90;;;;;;5053337;28;20047;-79
2022/06/08 01:24:27;;;;;;;11.93;9.85;;;15.20;99.90;;;;;;5053121;28;20047;-78
2022/06/08 01:27:26;;;;;;;13.80;10.32;;;15.30;99.90;;;;;;5049170;28;20493;-79
2022/06/08 01:30:14;;;;;;;11.50;9.68;;;15.30;99.90;;;;;;5050731;28;20039;-79
2022/06/08 01:32:56;;;;;;;11.82;10.27;;;15.40;99.90;;;;;;5063023;28;20040;-79
2022/06/08 01:35:31;;;;;;;12.85;10.27;;;15.40;99.90;;;;;;5063690;28;20028;-79
2022/06/08 01:38:26;;;;;;;11.75;9.70;;;15.40;99.90;;;;;;5061562;28;20028;-79
2022/06/08 01:41:24;;;;;;;13.43;11.07;;;15.40;99.90;;;;;;5062313;28;20402;-79
2022/06/08 01:44:30;;;;;;;13.98;10.57;;;15.50;99.90;;;;;;5050463;28;20383;-79
2022/06/08 01:47:17;;;;;;;12.07;9.57;;;15.50;99.90;;;;;;5037756;28;20032;-79
2022/06/08 01:49:54;;;;;;;11.25;9.75;;;15.50;99.90;;;;;;5050472;28;20039;-79
2022/06/08 01:52:56;;;;;;;12.73;10.63;;;15.50;99.90;;;;;;5077731;28;20027;-78
2022/06/08 01:55:47;;;;;;;11.70;10.13;;;15.50;99.90;;;;;;5045104;28;20063;-79
2022/06/08 01:59:08;;;;;;;12.95;9.30;;;15.60;99.90;;;;;;5048615;28;21211;-79
2022/06/08 02:01:53;;;;;;;11.70;9.55;;;15.60;99.90;;;;;;4983073;28;20402;-78
2022/06/08 02:04:34;;;;;;;14.98;9.55;;;15.50;99.90;;;;;;5066089;28;20043;-79
2022/06/08 02:07:25;;;;;;;11.43;9.17;;;15.50;99.90;;;;;;5060391;28;20363;-78
2022/06/08 02:10:12;;;;;;;11.63;9.07;;;15.50;99.90;;;;;;5065064;28;20384;-78
2022/06/08 02:12:45;;;;;;;13.35;9.85;;;15.50;99.90;;;;;;5048572;28;20043;-79
2022/06/08 02:15:18;;;;;;;11.88;10.52;;;15.50;99.90;;;;;;5069402;28;20036;-78
2022/06/08 02:17:53;;;;;;;11.20;9.48;;;15.50;99.90;;;;;;5077410;28;20028;-78
2022/06/08 02:20:32;;;;;;;11.85;10.20;;;15.60;99.90;;;;;;5064121;28;20482;-79
2022/06/08 02:23:11;;;;;;;10.43;9.30;;;15.60;99.90;;;;;;5041988;28;20123;-79
2022/06/08 02:25:49;;;;;;;11.75;10.52;;;15.60;99.90;;;;;;5047677;28;20040;-79
2022/06/08 02:28:38;;;;;;;10.50;8.90;;;15.60;99.90;;;;;;5061653;28;20028;-79
2022/06/08 02:31:15;;;;;;;14.40;11.88;;;15.60;99.90;;;;;;5043586;28;20055;-78
2022/06/08 02:36:41;;;;;;;11.85;10.65;;;15.60;99.90;;;;;;5062898;28;20049;-79
2022/06/08 02:39:35;;;;;;;14.35;11.38;;;15.50;99.90;;;;;;5059435;28;20048;-79
2022/06/08 02:42:14;;;;;;;15.50;12.43;;;15.40;99.90;;;;;;5059184;28;20019;-79
2022/06/08 02:44:47;;;;;;;13.45;11.05;;;15.20;99.90;;;;;;5065849;28;20054;-79
2022/06/08 02:47:31;;;;;;;15.02;11.45;;;15.10;99.90;;;;;;5060517;28;21279;-79
2022/06/08 02:50:12;;;;;;;14.32;12.05;;;15.00;99.90;;;;;;5079050;28;20537;-79
2022/06/08 02:52:46;;;;;;;12.95;11.15;;;15.00;99.90;;;;;;5041934;28;20056;-79
2022/06/08 02:55:28;;;;;;;18.52;13.18;;;14.90;99.90;;;;;;5066902;28;20027;-79
2022/06/08 02:58:00;;;;;;;17.10;13.88;;;14.90;99.90;;;;;;5059069;28;20024;-79
2022/06/08 03:01:00;;;;;;;15.57;13.05;;;14.80;99.90;;;;;;5048923;28;20047;-79
2022/06/08 03:03:41;;;;;;;16.58;12.20;;;14.80;99.90;;;;;;5038307;28;20621;-79
2022/06/08 03:06:17;;;;;;;15.10;12.80;;;14.70;99.90;;;;;;5043350;28;20375;-78
2022/06/08 03:08:55;;;;;;;14.35;12.18;;;14.60;99.90;;;;;;5058795;28;20381;-79
2022/06/08 03:11:25;;;;;;;16.83;14.13;;;14.60;99.90;;;;;;5049492;28;20032;-79
2022/06/08 03:13:58;;;;;;;18.02;12.90;;;14.50;99.90;;;;;;5061342;28;20367;-78
2022/06/08 03:16:29;;;;;;;16.00;12.73;;;14.50;99.90;;;;;;5047674;28;20039;-78
2022/06/08 03:18:58;;;;;;;17.45;14.00;;;14.40;99.90;;;;;;5044924;28;20496;-79
2022/06/08 03:21:26;;;;;;;17.10;13.77;;;14.40;99.90;;;;;;5045502;28;20028;-79
2022/06/08 03:23:54;;;;;;;18.00;14.32;;;14.40;99.90;;;;;;5046845;28;20080;-79
2022/06/08 03:26:25;;;;;;;17.60;14.20;;;14.30;99.90;;;;;;5045758;28;20479;-79
2022/06/08 03:28:52;;;;;;;16.67;13.32;;;14.30;99.90;;;;;;5038591;28;20028;-78
2022/06/08 03:31:19;;;;;;;17.02;13.30;;;14.30;99.90;;;;;;5061112;28;20016;-78
2022/06/08 03:33:46;;;;;;;16.85;14.23;;;14.30;99.90;;;;;;5044843;28;20505;-79
2022/06/08 03:36:13;;;;;;;17.30;13.80;;;14.30;99.90;;;;;;5045011;28;20086;-79
2022/06/08 03:38:42;;;;;;;15.95;13.25;;;14.30;99.90;;;;;;5055548;28;20028;-79
2022/06/08 03:41:10;;;;;;;19.40;15.00;;;14.30;99.90;;;;;;5014809;28;20051;-80
2022/06/08 03:43:37;;;;;;;16.15;13.85;;;14.30;99.90;;;;;;5028656;28;20035;-79
2022/06/08 03:46:07;;;;;;;19.40;14.70;;;14.30;99.90;;;;;;5029778;28;20032;-78
2022/06/08 03:48:34;;;;;;;19.20;14.55;;;14.40;99.90;;;;;;5040927;28;20031;-78
2022/06/08 03:51:02;;;;;;;21.10;15.50;;;14.50;99.90;;;;;;5028677;28;20035;-78
2022/06/08 03:53:35;;;;;;;19.90;15.95;;;14.50;99.90;;;;;;5043191;28;20033;-79
2022/06/08 03:56:04;;;;;;;19.25;15.25;;;14.60;99.90;;;;;;5064644;28;20023;-78
2022/06/08 03:58:31;;;;;;;18.35;15.20;;;14.60;99.90;;;;;;5046159;28;20691;-78
2022/06/08 04:01:00;;;;;;;25.48;19.48;;;14.60;99.90;;;;;;5050208;28;20041;-78
2022/06/08 04:03:27;;;;;;;21.02;16.60;;;14.70;99.90;;;;;;5040875;28;20035;-78
2022/06/08 04:05:54;;;;;;;17.85;15.50;;;14.80;99.90;;;;;;5049242;28;20514;-78
2022/06/08 04:08:26;;;;;;;20.30;16.55;;;14.90;99.90;;;;;;5046878;28;20026;-78
2022/06/08 04:10:55;;;;;;;23.35;18.27;;;14.90;99.90;;;;;;5044267;28;20374;-79
2022/06/08 04:13:23;;;;;;;22.27;17.85;;;15.00;99.90;;;;;;5049288;28;20440;-80
2022/06/08 04:15:54;;;;;;;20.30;17.45;;;15.00;99.90;;;;;;5048965;28;20030;-80
2022/06/08 04:18:25;;;;;;;22.47;17.87;;;15.00;99.90;;;;;;5061445;28;20036;-79
2022/06/08 04:21:00;;;;;;;21.70;16.15;;;15.00;99.90;;;;;;5067277;28;20298;-80
2022/06/08 04:23:36;;;;;;;21.25;17.42;;;15.00;99.90;;;;;;5062515;28;20048;-80
2022/06/08 04:26:05;;;;;;;21.58;17.77;;;15.00;99.90;;;;;;5071843;28;20020;-80
2022/06/08 04:28:31;;;;;;;20.58;16.77;;;14.90;99.90;;;;;;5059464;28;20043;-79
2022/06/08 04:31:04;;;;;;;17.50;15.30;;;14.90;99.90;;;;;;5047394;28;20043;-80
2022/06/08 04:33:35;;;;;;;20.92;17.60;;;15.00;99.90;;;;;;5047340;28;20529;-79
2022/06/08 04:36:05;;;;;;;19.52;16.58;;;15.00;99.90;;;;;;5030590;28;20024;-80
2022/06/08 04:38:33;;;;;;;25.38;20.38;;;15.10;99.90;;;;;;5059150;28;20383;-80
2022/06/08 04:41:01;;;;;;;24.77;19.00;;;15.20;99.90;;;;;;5045293;28;20043;-79
2022/06/08 04:43:35;;;;;;;22.60;19.08;;;15.20;99.90;;;;;;5079806;28;20032;-78
2022/06/08 04:46:03;;;;;;;22.00;19.10;;;15.40;99.90;;;;;;5036877;28;20023;-79
2022/06/08 04:48:32;;;;;;;23.17;17.90;;;15.40;99.90;;;;;;5057440;28;20099;-79
2022/06/08 04:50:59;;;;;;;21.70;19.30;;;15.50;99.90;;;;;;5043877;28;20041;-79
2022/06/08 04:53:25;;;;;;;22.10;19.25;;;15.50;99.90;;;;;;5051447;28;20396;-79
2022/06/08 04:55:52;;;;;;;21.20;18.92;;;15.60;99.90;;;;;;5018382;28;20392;-79
2022/06/08 04:58:20;;;;;;;23.08;18.58;;;15.80;99.90;;;;;;5040487;28;20035;-79
2022/06/08 05:00:47;;;;;;;22.25;19.95;;;15.90;99.90;;;;;;5068592;28;20036;-79
2022/06/08 05:03:16;;;;;;;23.30;20.88;;;16.10;99.90;;;;;;5045564;28;20039;-80
2022/06/08 05:05:44;;;;;;;22.83;20.40;;;16.20;99.90;;;;;;5045367;28;20032;-80
2022/06/08 05:08:17;;;;;;;20.55;17.67;;;16.40;99.90;;;;;;5050007;28;20024;-80
2022/06/08 05:10:48;;;;;;;22.83;19.98;;;16.40;99.90;;;;;;5079278;28;20395;-81
2022/06/08 05:13:19;;;;;;;19.63;17.33;;;16.40;99.90;;;;;;5045608;28;20386;-80
2022/06/08 05:15:52;;;;;;;18.80;16.73;;;16.40;99.90;;;;;;5037409;28;20032;-80
2022/06/08 05:18:20;;;;;;;18.80;16.92;;;16.50;99.90;;;;;;5032779;28;20035;-80
2022/06/08 05:20:48;;;;;;;19.73;17.63;;;16.60;99.90;;;;;;5031450;28;20036;-79
2022/06/08 05:23:23;;;;;;;17.10;15.32;;;16.70;99.90;;;;;;5049995;28;20036;-80
2022/06/08 05:25:52;;;;;;;18.05;16.15;;;16.80;99.90;;;;;;5045298;28;20040;-81
2022/06/08 05:28:19;;;;;;;16.92;15.02;;;17.00;99.90;;;;;;5029082;28;20032;-80
2022/06/08 05:30:58;;;;;;;18.38;15.20;;;17.10;99.90;;;;;;5062429;28;20044;-80
2022/06/08 05:33:28;;;;;;;14.82;13.32;;;17.20;99.90;;;;;;5033529;28;20359;-81
2022/06/08 05:36:02;;;;;;;17.50;15.80;;;17.40;99.90;;;;;;5051197;28;20032;-89
2022/06/08 05:38:29;;;;;;;19.48;17.40;;;17.50;99.90;;;;;;5043910;28;20459;-88
2022/06/08 05:40:57;;;;;;;17.98;15.13;;;17.50;99.90;;;;;;5052948;28;20028;-88
2022/06/08 05:43:24;;;;;;;17.58;15.35;;;17.60;99.90;;;;;;5036739;28;20047;-88
2022/06/08 05:45:53;;;;;;;14.25;12.85;;;17.70;99.90;;;;;;5052531;28;20032;-88
2022/06/08 05:48:21;;;;;;;15.52;13.93;;;17.80;99.90;;;;;;5047968;28;20383;-88
2022/06/08 05:50:49;;;;;;;16.38;14.70;;;17.80;99.90;;;;;;5052373;28;20040;-89
2022/06/08 05:53:19;;;;;;;18.90;16.92;;;17.80;99.90;;;;;;5051210;28;20021;-89
2022/06/08 05:55:46;;;;;;;14.85;13.35;;;17.70;99.90;;;;;;5048893;28;20087;-89
2022/06/08 05:58:13;;;;;;;13.70;12.30;;;17.70;99.90;;;;;;5046502;28;20048;-88
2022/06/08 06:00:42;;;;;;;16.33;14.63;;;17.70;99.90;;;;;;5038075;28;20387;-86
2022/06/08 06:03:10;;;;;;;16.05;13.48;;;17.80;99.90;;;;;;5047781;28;20502;-87
2022/06/08 06:05:38;;;;;;;13.98;12.50;;;17.80;99.90;;;;;;5073959;28;20028;-88
2022/06/08 06:08:10;;;;;;;11.82;10.70;;;17.80;99.90;;;;;;5047249;28;20032;-86
2022/06/08 06:10:58;;;;;;;13.70;12.30;;;17.90;99.90;;;;;;5051237;28;20032;-87
2022/06/08 06:13:32;;;;;;;11.57;10.45;;;17.90;99.90;;;;;;5065601;28;20047;-87
2022/06/08 06:15:59;;;;;;;11.77;10.57;;;18.10;99.90;;;;;;5045458;28;20039;-87
2022/06/08 06:18:28;;;;;;;12.77;11.45;;;18.20;99.90;;;;;;5031073;28;20058;-87
2022/06/08 06:21:01;;;;;;;12.13;9.75;;;18.50;99.90;;;;;;5052103;28;20048;-88
2022/06/08 06:23:56;;;;;;;10.95;9.82;;;18.60;99.90;;;;;;5044017;28;20055;-86
2022/06/08 06:26:40;;;;;;;12.27;11.07;;;18.80;99.90;;;;;;5038415;28;20371;-86
2022/06/08 06:29:25;;;;;;;9.38;8.27;;;18.80;99.90;;;;;;5051813;28;20036;-86
2022/06/08 06:32:21;;;;;;;9.93;8.45;;;18.80;99.90;;;;;;5036693;28;20051;-86
2022/06/08 06:34:50;;;;;;;9.27;8.07;;;18.90;99.90;;;;;;5064293;28;20039;-86
2022/06/08 06:37:18;;;;;;;8.57;7.20;;;19.00;99.90;;;;;;5059888;28;20043;-87
2022/06/08 06:39:46;;;;;;;8.95;8.15;;;19.00;99.90;;;;;;5037040;28;20032;-85
2022/06/08 06:42:25;;;;;;;6.68;6.05;;;19.00;99.90;;;;;;5047368;28;20035;-86
2022/06/08 06:45:12;;;;;;;8.63;6.30;;;19.10;99.90;;;;;;5007568;28;20044;-87
2022/06/08 06:47:44;;;;;;;5.82;5.25;;;19.10;99.90;;;;;;5027617;28;20036;-87
2022/06/08 06:50:23;;;;;;;7.65;6.45;;;19.30;99.90;;;;;;5055668;28;20040;-87
2022/06/08 06:52:52;;;;;;;8.13;6.70;;;19.30;99.90;;;;;;5054980;28;20483;-87
2022/06/08 06:55:23;;;;;;;10.27;6.60;;;19.30;99.90;;;;;;5066228;28;20045;-87
2022/06/08 06:57:54;;;;;;;6.75;5.95;;;19.30;99.90;;;;;;5045193;28;20036;-87
2022/06/08 07:00:27;;;;;;;6.60;5.68;;;19.40;99.90;;;;;;5036696;28;20039;-88
2022/06/08 07:02:57;;;;;;;6.85;5.63;;;19.40;99.90;;;;;;5045924;28;20422;-88
2022/06/08 07:05:26;;;;;;;6.07;4.95;;;19.30;99.90;;;;;;5038248;28;20032;-88
2022/06/08 07:07:53;;;;;;;6.80;5.28;;;19.30;99.90;;;;;;5066390;28;20035;-88
2022/06/08 07:10:20;;;;;;;5.22;4.22;;;19.40;99.90;;;;;;5049814;28;20024;-86
2022/06/08 07:12:48;;;;;;;6.28;3.47;;;19.50;99.90;;;;;;5043858;28;20024;-87
2022/06/08 07:15:16;;;;;;;3.97;3.58;;;19.50;99.90;;;;;;5053599;28;20032;-87
2022/06/08 07:17:44;;;;;;;6.35;3.97;;;19.60;99.90;;;;;;5035237;28;20024;-87
2022/06/08 07:20:12;;;;;;;4.78;4.07;;;19.70;99.90;;;;;;5039153;28;20511;-86
2022/06/08 07:22:39;;;;;;;4.90;4.28;;;19.90;99.90;;;;;;5052843;28;20035;-87
2022/06/08 07:25:07;;;;;;;4.28;2.90;;;19.90;99.90;;;;;;5045184;28;20047;-86
2022/06/08 07:27:35;;;;;;;4.75;3.88;;;20.00;99.90;;;;;;5051494;28;20033;-87
2022/06/08 07:30:04;;;;;;;4.25;3.83;;;20.00;99.90;;;;;;5052327;28;20047;-87
2022/06/08 07:32:30;;;;;;;5.28;3.75;;;20.00;99.90;;;;;;5049394;28;20037;-87
2022/06/08 07:34:57;;;;;;;5.38;3.42;;;20.10;99.90;;;;;;5050683;28;20029;-87
2022/06/08 07:37:24;;;;;;;3.92;3.35;;;20.20;99.90;;;;;;5084179;28;20382;-88
2022/06/08 07:39:52;;;;;;;4.07;3.17;;;20.20;99.90;;;;;;5057602;28;20054;-88
2022/06/08 07:42:18;;;;;;;5.38;3.17;;;20.20;99.90;;;;;;5069693;28;20048;-88
2022/06/08 07:44:45;;;;;;;3.72;2.72;;;20.20;99.90;;;;;;5050387;28;20032;-88
2022/06/08 07:47:12;;;;;;;4.22;2.92;;;20.30;99.90;;;;;;5045873;28;20070;-89
2022/06/08 07:49:41;;;;;;;2.88;1.92;;;20.40;99.90;;;;;;5059494;28;20020;-87
2022/06/08 07:52:14;;;;;;;6.78;2.67;;;20.60;99.90;;;;;;5048380;28;20036;-88
2022/06/08 07:54:42;;;;;;;3.35;2.35;;;20.70;99.90;;;;;;5051430;28;20028;-89
2022/06/08 07:57:17;;;;;;;4.63;2.65;;;20.80;99.90;;;;;;5059266;28;20032;-89
2022/06/08 07:59:45;;;;;;;3.22;2.20;;;20.70;99.90;;;;;;5083040;28;20388;-88
2022/06/08 08:02:12;;;;;;;4.60;2.33;;;20.80;99.90;;;;;;5045076;28;20032;-88
2022/06/08 08:04:38;;;;;;;3.72;2.30;;;20.90;99.90;;;;;;5064970;28;20024;-87
2022/06/08 08:07:11;;;;;;;4.13;2.13;;;20.90;99.90;;;;;;5071910;28;20020;-87
2022/06/08 08:09:38;;;;;;;2.80;1.63;;;20.90;99.90;;;;;;5048851;28;20039;-88
2022/06/08 08:12:05;;;;;;;2.95;1.85;;;21.00;99.90;;;;;;5049744;28;20032;-87
2022/06/08 08:14:33;;;;;;;3.67;1.65;;;21.30;99.90;;;;;;5051334;28;20051;-87
2022/06/08 08:17:02;;;;;;;2.63;1.70;;;21.50;99.90;;;;;;5032731;28;20036;-88
2022/06/08 08:19:29;;;;;;;4.43;1.83;;;21.80;99.90;;;;;;5048236;28;20047;-88
2022/06/08 08:21:56;;;;;;;2.47;1.50;;;22.00;99.90;;;;;;5052208;28;20036;-88
2022/06/08 08:24:22;;;;;;;2.90;1.60;;;22.10;99.90;;;;;;5045872;28;20052;-88
2022/06/08 08:26:50;;;;;;;4.43;1.48;;;22.00;99.90;;;;;;5035870;28;20032;-88
2022/06/08 08:29:18;;;;;;;2.50;1.75;;;22.10;99.90;;;;;;5058631;28;20028;-88
2022/06/08 08:31:44;;;;;;;3.60;1.42;;;22.10;99.90;;;;;;5063563;28;20040;-88
2022/06/08 08:34:11;;;;;;;5.38;1.92;;;22.20;99.90;;;;;;5051481;28;20033;-87
2022/06/08 08:36:38;;;;;;;3.28;1.70;;;22.30;99.90;;;;;;5037487;28;20387;-88
2022/06/08 08:39:06;;;;;;;4.50;2.13;;;22.50;99.90;;;;;;5043849;28;20040;-88
2022/06/08 08:44:34;;;;;;;3.28;1.35;;;23.00;99.90;;;;;;5067842;28;20029;-88
2022/06/08 08:47:20;;;;;;;3.92;1.30;;;23.20;99.90;;;;;;5062298;28;20036;-87
2022/06/08 08:49:55;;;;;;;3.80;1.55;;;23.50;99.90;;;;;;5047757;28;20032;-87
2022/06/08 08:52:39;;;;;;;4.72;1.23;;;23.80;99.90;;;;;;5066176;28;20379;-87
2022/06/08 08:55:24;;;;;;;2.60;1.20;;;24.10;99.90;;;;;;5067667;28;20036;-87
2022/06/08 08:58:07;;;;;;;3.58;0.98;;;24.40;99.90;;;;;;5076275;28;20039;-87
2022/06/08 09:00:51;;;;;;;3.28;1.30;;;24.70;99.90;;;;;;5048106;28;20402;-88
2022/06/08 09:03:25;;;;;;;2.30;1.10;;;24.80;99.90;;;;;;5052915;28;20482;-88
2022/06/08 09:06:13;;;;;;;3.03;0.90;;;24.80;99.90;;;;;;5047233;28;20028;-88
2022/06/08 09:08:45;;;;;;;4.00;0.95;;;24.80;99.90;;;;;;5060692;28;20028;-88
2022/06/08 09:11:36;;;;;;;4.65;1.00;;;24.90;99.90;;;;;;5064193;28;20031;-88
2022/06/08 09:14:13;;;;;;;5.35;1.17;;;24.80;99.90;;;;;;5067290;28;20036;-88
2022/06/08 09:16:49;;;;;;;2.53;0.80;;;24.80;99.90;;;;;;5044307;28;20059;-87
2022/06/08 09:19:32;;;;;;;3.47;1.30;;;24.70;99.90;;;;;;5050962;28;20032;-87
2022/06/08 09:22:02;;;;;;;2.88;0.90;;;24.80;99.90;;;;;;5065198;28;20615;-86
2022/06/08 09:24:37;;;;;;;2.80;0.93;;;24.80;99.90;;;;;;5048523;28;20048;-88
2022/06/08 09:27:17;;;;;;;5.30;1.17;;;24.90;99.90;;;;;;5044159;28;20398;-88
2022/06/08 09:29:51;;;;;;;5.07;1.15;;;24.80;99.90;;;;;;5043580;28;20042;-87
2022/06/08 09:32:24;;;;;;;3.75;1.33;;;24.80;99.90;;;;;;5067877;28;20013;-87
2022/06/08 09:34:57;;;;;;;6.75;1.40;;;24.60;99.90;;;;;;5067362;28;20039;-88
2022/06/08 09:37:25;;;;;;;3.45;1.35;;;24.40;99.90;;;;;;5047964;28;20043;-88
2022/06/08 09:39:59;;;;;;;4.18;1.35;;;24.20;99.90;;;;;;5070290;28;20028;-88
2022/06/08 09:42:48;;;;;;;5.93;1.00;;;24.10;99.90;;;;;;5055870;28;20074;-87
2022/06/08 09:45:36;;;;;;;4.53;0.95;;;24.00;99.90;;;;;;5054550;28;20048;-87
2022/06/08 09:51:50;;;;;;;3.55;0.90;;;24.20;99.90;;;;;;5063036;28;20039;-88
2022/06/08 09:54:58;;;;;;;1.83;0.60;;;24.40;99.90;;;;;;5044899;28;20043;-87
2022/06/08 09:57:42;;;;;;;3.65;1.35;;;24.40;99.90;;;;;;5060209;28;20028;-88
2022/06/08 10:00:45;;;;;;;7.05;1.65;;;24.20;99.90;;;;;;5064425;28;20379;-89
2022/06/08 10:03:31;;;;;;;2.53;1.42;;;24.10;99.90;;;;;;5066805;28;20032;-89
2022/06/08 10:06:26;;;;;;;4.00;1.38;;;23.80;99.90;;;;;;5062665;28;20035;-88
2022/06/08 10:09:04;;;;;;;4.50;0.90;;;23.60;99.90;;;;;;5059877;28;20051;-88
2022/06/08 10:12:00;;;;;;;2.95;0.73;;;23.50;99.90;;;;;;5061067;28;20043;-89
2022/06/08 10:14:43;;;;;;;4.40;1.17;;;23.50;99.90;;;;;;5059683;28;20032;-88
2022/06/08 10:17:18;;;;;;;4.05;0.98;;;23.60;99.90;;;;;;5060162;28;20042;-88
2022/06/08 10:20:04;;;;;;;4.25;1.10;;;23.50;99.90;;;;;;5044647;28;20025;-88
2022/06/08 10:22:38;;;;;;;3.35;0.90;;;23.30;99.90;;;;;;5042969;28;20082;-87
2022/06/08 10:25:22;;;;;;;5.95;0.77;;;23.10;99.90;;;;;;5080092;28;20499;-88
2022/06/08 10:28:00;;;;;;;2.67;0.90;;;22.90;99.90;;;;;;5042748;28;20036;-89
2022/06/08 10:30:34;;;;;;;5.00;0.82;;;22.90;99.90;;;;;;5059769;28;20028;-89
2022/06/08 10:33:06;;;;;;;4.40;1.00;;;22.80;99.90;;;;;;5061563;28;20024;-87
2022/06/08 10:35:49;;;;;;;4.35;0.98;;;22.60;99.90;;;;;;5051191;28;20039;-89
2022/06/08 10:38:36;;;;;;;4.43;1.10;;;22.50;99.90;;;;;;5058301;28;20032;-88
2022/06/08 10:44:48;;;;;;;3.33;1.13;;;22.50;99.90;;;;;;5058021;28;20032;-79
2022/06/08 10:47:18;;;;;;;8.75;1.02;;;22.60;99.90;;;;;;5038579;28;20039;-79
2022/06/08 10:49:47;;;;;;;3.80;0.95;;;22.70;99.90;;;;;;5058363;28;20016;-79
2022/06/08 10:52:20;;;;;;;4.47;1.13;;;22.90;99.90;;;;;;5074837;28;20054;-79
2022/06/08 10:54:55;;;;;;;3.20;0.98;;;23.00;99.90;;;;;;5045645;28;20377;-80
2022/06/08 10:57:35;;;;;;;4.72;1.20;;;23.10;99.90;;;;;;5058382;28;20032;-79
2022/06/08 11:00:20;;;;;;;5.70;1.15;;;23.10;99.90;;;;;;5064217;28;20482;-79
2022/06/08 11:03:03;;;;;;;3.03;0.90;;;23.00;99.90;;;;;;5042199;28;21745;-79
2022/06/08 11:05:33;;;;;;;4.53;1.15;;;22.90;99.90;;;;;;5063483;28;20055;-79
2022/06/08 11:08:04;;;;;;;3.78;0.73;;;22.80;99.90;;;;;;5037271;28;20032;-80
2022/06/08 11:10:44;;;;;;;5.45;1.05;;;22.50;99.90;;;;;;5076327;28;20031;-79
2022/06/08 11:13:25;;;;;;;3.58;0.70;;;22.10;99.90;;;;;;5056815;28;20036;-79
2022/06/08 11:15:59;;;;;;;3.60;0.88;;;21.80;99.90;;;;;;5044802;28;20028;-79
2022/06/08 11:18:42;;;;;;;6.05;0.90;;;21.50;99.90;;;;;;5040097;28;20043;-80
2022/06/08 11:21:21;;;;;;;4.18;0.70;;;21.20;99.90;;;;;;5045429;28;20039;-79
2022/06/08 11:23:55;;;;;;;4.50;0.80;;;21.00;99.90;;;;;;5058718;28;20055;-80
2022/06/08 11:26:28;;;;;;;3.75;0.70;;;21.00;99.90;;;;;;5045056;28;20035;-79
2022/06/08 11:29:00;;;;;;;6.20;1.00;;;21.00;99.90;;;;;;5054797;28;20020;-80
2022/06/08 11:31:30;;;;;;;4.68;0.88;;;21.10;99.90;;;;;;5042875;28;20048;-80
2022/06/08 11:34:24;;;;;;;4.28;0.77;;;21.20;99.90;;;;;;5040633;28;20383;-80
2022/06/08 11:36:53;;;;;;;4.13;0.70;;;21.30;99.90;;;;;;5075460;28;20023;-79
2022/06/08 11:39:40;;;;;;;6.75;1.08;;;21.50;99.90;;;;;;5044840;28;20483;-79
2022/06/08 11:42:25;;;;;;;5.18;1.00;;;21.70;99.90;;;;;;5059079;28;20043;-79
2022/06/08 11:44:58;;;;;;;5.47;1.00;;;21.70;99.90;;;;;;5076500;28;20027;-79
2022/06/08 11:47:59;;;;;;;2.38;0.55;;;21.80;99.90;;;;;;5056338;28;20024;-79
2022/06/08 11:50:30;;;;;;;3.40;0.80;;;21.80;99.90;;;;;;5046980;28;20035;-79
2022/06/08 11:53:06;;;;;;;5.55;1.00;;;21.80;99.90;;;;;;5036191;28;20036;-80
2022/06/08 11:55:50;;;;;;;4.20;0.77;;;21.70;99.90;;;;;;5077902;28;20028;-79
2022/06/08 11:58:27;;;;;;;3.08;0.60;;;21.70;99.90;;;;;;5072032;28;20360;-80
2022/06/08 12:01:06;;;;;;;4.32;0.80;;;21.60;99.90;;;;;;5046284;28;20483;-79
2022/06/08 12:03:42;;;;;;;5.53;1.05;;;21.40;99.90;;;;;;5076529;28;20094;-79
2022/06/08 12:06:14;;;;;;;3.70;0.88;;;21.30;99.90;;;;;;5078938;28;20024;-79
2022/06/08 12:08:52;;;;;;;;;;;21.00;99.90;;;;;;5060532;28;20482;-79
2022/06/08 12:11:24;;;;;;;3.70;0.65;;;20.90;99.90;;;;;;5060093;28;19912;-78
2022/06/08 12:14:23;;;;;;;2.90;0.70;;;20.70;99.90;;;;;;5077006;28;20016;-79
2022/06/08 12:17:24;;;;;;;4.93;0.90;;;20.50;99.90;;;;;;5058907;28;20411;-79
2022/06/08 12:19:54;;;;;;;4.75;0.82;;;20.30;99.90;;;;;;5042125;28;20020;-79
2022/06/08 12:22:29;;;;;;;4.50;0.60;;;20.10;99.90;;;;;;5074369;28;20032;-79
2022/06/08 12:25:22;;;;;;;4.78;1.05;;;20.10;99.90;;;;;;5079347;28;20406;-79
2022/06/08 12:28:04;;;;;;;3.58;0.70;;;20.10;99.90;;;;;;5075955;28;20040;-79
2022/06/08 12:30:32;;;;;;;4.40;1.02;;;20.10;99.90;;;;;;5064867;28;20063;-79
2022/06/08 12:33:13;;;;;;;5.18;0.80;;;20.10;99.90;;;;;;5044373;28;20470;-80
2022/06/08 12:36:07;;;;;;;4.23;0.87;;;19.90;99.90;;;;;;5064484;28;20023;-80
2022/06/08 12:38:35;;;;;;;4.43;1.20;;;19.90;99.90;;;;;;5060293;28;20267;-80
2022/06/08 12:41:14;;;;;;;5.97;0.82;;;19.80;99.90;;;;;;5076129;28;20475;-80
2022/06/08 12:43:43;;;;;;;2.35;0.70;;;19.70;99.90;;;;;;5046947;28;20479;-79
2022/06/08 12:46:20;;;;;;;5.13;0.80;;;19.60;99.90;;;;;;5050431;28;20035;-79
2022/06/08 12:49:09;;;;;;;3.13;0.80;;;19.60;99.90;;;;;;5048812;28;20478;-79
2022/06/08 12:51:59;;;;;;;4.43;1.10;;;19.50;99.90;;;;;;5077466;28;20032;-77
2022/06/08 12:54:35;;;;;;;4.38;0.88;;;19.40;99.90;;;;;;5046353;28;20029;-78
2022/06/08 12:57:16;;;;;;;6.10;1.65;;;19.30;99.90;;;;;;5059693;28;20024;-78
2022/06/08 12:59:44;;;;;;;3.83;0.70;;;19.20;99.90;;;;;;5046064;28;20036;-77
2022/06/08 13:02:14;;;;;;;3.35;0.75;;;19.00;99.90;;;;;;5078448;28;20036;-78
2022/06/08 13:04:42;;;;;;;3.22;0.80;;;19.00;99.90;;;;;;5062734;28;20459;-78
2022/06/08 13:07:14;;;;;;;3.50;0.50;;;18.90;99.90;;;;;;5026372;28;20032;-77
2022/06/08 13:09:41;;;;;;;3.05;0.77;;;18.90;99.90;;;;;;5058889;28;20017;-77
2022/06/08 13:12:12;;;;;;;6.70;0.70;;;18.80;99.90;;;;;;5062402;28;20503;-78
2022/06/08 13:14:41;;;;;;;5.07;1.13;;;18.60;99.90;;;;;;5078163;28;20031;-77
2022/06/08 13:17:09;;;;;;;4.53;0.95;;;18.60;99.90;;;;;;5043561;28;20389;-78
2022/06/08 13:19:36;;;;;;;2.83;0.70;;;18.50;99.90;;;;;;5061347;28;20024;-78
2022/06/08 13:22:02;;;;;;;3.55;0.60;;;18.50;99.90;;;;;;5060355;28;20043;-78
2022/06/08 13:24:29;;;;;;;3.00;0.80;;;18.40;99.90;;;;;;5031620;28;20048;-78
2022/06/08 13:26:55;;;;;;;3.53;0.80;;;18.40;99.90;;;;;;5060420;28;20028;-78
2022/06/08 13:29:22;;;;;;;3.33;0.90;;;18.40;99.90;;;;;;5044871;28;20047;-78